CDT,Max TemperatureF,Mean TemperatureF,Min TemperatureF,Max Dew PointF,MeanDew PointF,Min DewpointF,Max Humidity, Mean Humidity, Min Humidity, Max Sea Level PressureIn, Mean Sea Level PressureIn, Min Sea Level PressureIn, Max VisibilityMiles, Mean VisibilityMiles, Min VisibilityMiles, Max Wind SpeedMPH, Mean Wind SpeedMPH, Max Gust SpeedMPH,PrecipitationIn, CloudCover, Events, WindDirDegrees
2013-4-1,49,41,33,36,26,20,76,55,34,30.24,30.14,29.95,10,10,10,17,8,22,0.00,4,,2
2013-4-2,48,38,28,22,19,15,69,49,28,30.33,30.28,30.24,10,10,10,12,6,15,0.00,0,,39
2013-4-3,52,41,29,24,21,19,69,49,29,30.37,30.28,30.21,10,10,10,17,9,22,0.00,0,,65
2013-4-4,58,44,29,27,24,21,78,51,24,30.22,30.11,30.04,10,10,10,9,4,,0.00,0,,11
2013-4-5,68,51,33,38,33,26,75,54,32,30.17,30.08,29.98,10,10,8,13,5,15,0.00,0,,210
2013-4-6,72,62,52,44,39,33,62,48,34,29.97,29.84,29.71,10,10,10,29,15,37,0.00,0,,191
2013-4-7,76,62,47,57,48,42,84,60,35,29.89,29.83,29.77,10,10,7,23,9,29,0.11,3,Rain-Thunderstorm,184
2013-4-8,75,67,58,57,55,52,80,67,53,29.83,29.76,29.72,10,10,10,25,12,31,0.00,3,,176
2013-4-9,75,69,62,61,58,56,81,71,60,29.86,29.80,29.75,10,10,7,22,12,26,0.00,6,,159
2013-4-10,73,59,44,66,58,43,93,83,73,29.81,29.70,29.57,10,7,0,41,9,54,1.38,7,Fog-Rain-Thunderstorm,308
2013-4-11,44,39,33,43,35,29,100,82,64,29.76,29.72,29.69,10,8,2,20,11,25,T,8,Rain,261
2013-4-12,46,40,33,31,29,25,82,68,53,30.02,29.88,29.74,10,10,10,20,10,26,0.00,3,,274
2013-4-13,65,48,30,40,34,28,92,64,36,30.09,29.97,29.83,10,10,10,16,7,25,0.00,1,,168
2013-4-14,78,64,50,55,47,40,72,51,30,29.84,29.68,29.54,10,10,10,30,17,39,0.16,1,Rain-Thunderstorm,168
2013-4-15,69,59,49,61,54,46,100,87,73,29.88,29.80,29.71,10,7,0,17,10,22,0.04,8,Fog-Rain,40
2013-4-16,49,46,42,49,44,41,100,96,92,30.11,30.04,29.91,10,4,0,22,11,29,0.85,8,Fog-Rain-Thunderstorm,42
2013-4-17,83,64,45,67,56,45,100,77,54,30.07,29.89,29.64,10,5,0,29,16,38,0.00,4,Fog,136
2013-4-18,73,56,38,65,51,28,97,84,70,29.83,29.66,29.52,10,8,1,39,15,46,1.54,7,Rain-Thunderstorm,230
2013-4-19,50,42,33,29,26,23,70,53,36,30.08,29.93,29.82,10,10,10,25,15,33,0.00,6,,276
2013-4-20,58,43,28,33,28,24,85,59,33,30.26,30.20,30.10,10,10,10,14,5,17,0.00,0,,55
2013-4-21,67,55,43,39,34,31,67,49,31,30.35,30.26,30.17,10,10,10,17,10,24,0.00,2,,130
2013-4-22,71,58,44,43,37,35,70,49,28,30.22,30.08,29.95,10,10,10,20,11,25,0.00,1,,156
2013-4-23,60,48,36,52,43,35,100,77,53,30.05,29.94,29.90,10,5,0,21,11,25,0.75,8,Fog-Rain-Snow-Thunderstorm,335
2013-4-24,51,42,33,36,32,25,100,68,35,30.28,30.15,30.04,10,9,5,18,9,24,T,5,Rain-Snow,304
2013-4-25,64,49,34,39,33,28,82,57,31,30.35,30.29,30.25,10,10,10,14,7,18,0.00,0,,224
2013-4-26,53,50,46,47,44,35,93,72,50,30.36,30.27,30.20,10,8,5,17,10,22,0.67,8,Rain,132
2013-4-27,51,49,46,50,48,45,100,95,89,30.24,30.04,29.95,10,5,0,16,8,21,0.70,8,Fog-Rain,30
2013-4-28,61,55,48,50,48,47,100,82,64,30.00,29.95,29.88,10,5,0,14,7,17,0.00,6,Fog,294
2013-4-29,82,66,50,60,55,47,89,67,45,29.90,29.82,29.74,10,10,10,18,11,24,0.00,0,,187
2013-4-30,82,71,60,60,53,46,84,60,35,29.93,29.83,29.76,10,10,10,22,12,30,0.00,0,,183